createdAt,value
2023-05-21T00:02:00.257Z,7.38
2023-05-21T00:07:04.023Z,8.55
2023-05-21T00:12:08.921Z,7.57
2023-05-21T00:17:13.913Z,8.80
2023-05-21T00:22:17.559Z,7.78
2023-05-21T00:27:21.280Z,8.03
2023-05-21T00:32:26.369Z,7.72
2023-05-21T00:37:34.574Z,7.07
2023-05-21T00:42:40.042Z,7.85
2023-05-21T00:47:45.496Z,8.52
2023-05-21T00:52:49.402Z,7.82
2023-05-21T00:57:53.148Z,6.73
2023-05-21T01:02:58.233Z,6.55
2023-05-21T01:08:02.140Z,8.45
2023-05-21T01:13:05.790Z,6.90
2023-05-21T01:18:11.042Z,8.20
2023-05-21T01:23:17.156Z,7.40
2023-05-21T01:28:20.901Z,9.57
2023-05-21T01:33:30.535Z,8.05
2023-05-21T01:38:42.827Z,7.70
2023-05-21T01:43:48.223Z,9.30
2023-05-21T01:48:54.221Z,8.73
2023-05-21T01:53:59.371Z,7.60
2023-05-21T01:59:03.007Z,9.35
2023-05-21T02:04:07.025Z,10.98
2023-05-21T02:09:12.249Z,9.65
2023-05-21T02:14:15.862Z,9.35
2023-05-21T02:19:19.571Z,7.32
2023-05-21T02:24:24.653Z,8.65
2023-05-21T02:29:28.146Z,7.28
2023-05-21T02:34:33.237Z,8.80
2023-05-21T02:44:41.304Z,8.60
2023-05-21T02:49:44.945Z,10.52
2023-05-21T02:54:49.968Z,8.20
2023-05-21T02:59:53.623Z,9.18
2023-05-21T03:04:57.138Z,8.25
2023-05-21T03:10:02.067Z,9.05
2023-05-21T03:15:08.851Z,8.95
2023-05-21T03:20:17.229Z,9.35
2023-05-21T03:25:25.331Z,11.48
2023-05-21T03:30:28.956Z,8.80
2023-05-21T03:35:32.533Z,7.70
2023-05-21T03:40:37.421Z,10.85
2023-05-21T03:45:43.552Z,10.23
2023-05-21T03:50:48.190Z,8.60
2023-05-21T03:55:55.463Z,8.43
2023-05-21T04:00:59.193Z,9.30
2023-05-21T04:06:02.836Z,9.32
2023-05-21T04:11:07.856Z,9.93
2023-05-21T04:16:14.788Z,8.68
2023-05-21T04:21:18.472Z,8.80
2023-05-21T04:26:23.913Z,8.65
2023-05-21T04:31:27.427Z,8.75
2023-05-21T04:36:30.996Z,6.93
2023-05-21T04:41:36.949Z,7.22
2023-05-21T04:46:41.787Z,7.10
2023-05-21T04:51:45.529Z,7.97
2023-05-21T04:56:50.685Z,7.20
2023-05-21T05:01:54.392Z,6.15
2023-05-21T05:06:57.882Z,6.53
2023-05-21T05:12:03.115Z,5.17
2023-05-21T05:17:08.422Z,6.60
2023-05-21T05:22:13.500Z,5.32
2023-05-21T05:27:19.244Z,4.90
2023-05-21T05:32:22.827Z,6.80
2023-05-21T05:37:26.388Z,4.80
2023-05-21T05:42:31.347Z,5.00
2023-05-21T05:47:35.001Z,4.30
2023-05-21T05:52:38.695Z,4.78
2023-05-21T05:57:45.119Z,5.75
2023-05-21T06:02:49.483Z,5.50
2023-05-21T06:07:53.171Z,5.80
2023-05-21T06:12:58.153Z,4.00
2023-05-21T06:18:01.752Z,4.00
2023-05-21T06:23:06.745Z,5.10
2023-05-21T06:28:11.753Z,6.60
2023-05-21T06:33:15.515Z,6.53
2023-05-21T06:38:19.199Z,6.72
2023-05-21T06:43:24.343Z,6.50
2023-05-21T06:48:27.848Z,5.85
2023-05-21T06:53:31.549Z,4.90
2023-05-21T06:58:36.698Z,4.17
2023-05-21T07:03:40.340Z,4.88
2023-05-21T07:08:43.928Z,6.68
2023-05-21T07:13:48.934Z,6.13
2023-05-21T07:18:52.459Z,4.63
2023-05-21T07:23:56.807Z,5.38
2023-05-21T07:34:05.208Z,4.50
2023-05-21T07:39:08.824Z,4.20
2023-05-21T07:44:13.713Z,4.67
2023-05-21T07:49:17.690Z,4.05
2023-05-21T07:54:21.238Z,7.13
2023-05-21T07:59:26.520Z,5.72
2023-05-21T08:04:30.221Z,5.13
2023-05-21T08:09:33.745Z,3.30
2023-05-21T08:14:38.715Z,3.72
2023-05-21T08:19:42.182Z,4.93
2023-05-21T08:24:45.738Z,5.43
2023-05-21T08:29:51.008Z,5.35
2023-05-21T08:34:54.676Z,4.97
2023-05-21T08:39:58.203Z,3.83
2023-05-21T08:45:06.887Z,5.18
2023-05-21T08:50:12.218Z,7.45
2023-05-21T08:55:15.927Z,5.30
2023-05-21T09:00:21.343Z,4.55
2023-05-21T09:05:26.549Z,7.35
2023-05-21T09:10:37.034Z,5.10
2023-05-21T09:15:42.087Z,6.78
2023-05-21T09:20:45.986Z,4.82
2023-05-21T09:25:52.153Z,4.63
2023-05-21T09:30:57.053Z,4.03
2023-05-21T09:36:00.800Z,5.60
2023-05-21T09:41:06.704Z,6.65
2023-05-21T09:46:11.744Z,5.07
2023-05-21T09:51:17.155Z,4.15
2023-05-21T09:56:25.576Z,5.38
2023-05-21T10:01:33.925Z,6.68
2023-05-21T10:06:42.817Z,8.00
2023-05-21T10:11:46.740Z,4.05
2023-05-21T10:16:53.927Z,5.43
2023-05-21T10:21:58.165Z,7.00
2023-05-21T10:32:08.105Z,5.43
2023-05-21T10:37:14.539Z,6.07
2023-05-21T10:42:23.076Z,7.13
2023-05-21T10:47:49.110Z,4.65
2023-05-21T10:53:03.550Z,4.97
2023-05-21T10:58:39.841Z,7.53
2023-05-21T11:03:45.242Z,6.07
2023-05-21T11:08:49.612Z,4.75
2023-05-21T11:13:53.232Z,8.55
2023-05-21T11:19:03.016Z,5.07
2023-05-21T11:24:08.892Z,6.07
2023-05-21T11:29:12.802Z,8.38
2023-05-21T11:34:22.046Z,5.32
2023-05-21T11:39:27.726Z,6.45
2023-05-21T11:44:40.665Z,4.97
2023-05-21T11:49:46.665Z,5.78
2023-05-21T11:54:55.700Z,6.07
2023-05-21T12:00:00.506Z,4.97
2023-05-21T12:05:06.544Z,7.25
2023-05-21T12:10:10.941Z,8.00
2023-05-21T12:20:20.167Z,5.27
2023-05-21T12:25:23.882Z,6.85
2023-05-21T12:30:27.943Z,6.70
2023-05-21T12:35:33.326Z,7.35
2023-05-21T12:40:39.030Z,5.97
2023-05-21T12:45:44.806Z,5.88
2023-05-21T12:50:49.998Z,7.43
2023-05-21T12:55:56.489Z,5.65
2023-05-21T13:01:00.967Z,7.85
2023-05-21T13:06:08.556Z,7.18
2023-05-21T13:11:12.354Z,7.75
2023-05-21T13:16:16.584Z,7.50
2023-05-21T13:26:24.764Z,5.50
2023-05-21T13:31:28.741Z,6.77
2023-05-21T13:36:33.757Z,5.53
2023-05-21T13:41:37.425Z,7.28
2023-05-21T13:46:41.051Z,8.53
2023-05-21T13:51:46.055Z,4.53
2023-05-21T13:56:49.594Z,5.82
2023-05-21T14:01:53.292Z,5.30
2023-05-21T14:06:58.329Z,5.20
2023-05-21T14:12:01.858Z,4.55
2023-05-21T14:17:05.589Z,6.53
2023-05-21T14:22:10.532Z,3.83
2023-05-21T14:27:15.423Z,6.40
2023-05-21T14:32:19.480Z,5.00
2023-05-21T14:37:24.609Z,4.35
2023-05-21T14:42:28.141Z,5.63
2023-05-21T14:47:31.780Z,4.43
2023-05-21T14:52:36.903Z,6.55
2023-05-21T14:57:40.518Z,3.47
2023-05-21T15:02:44.085Z,3.03
2023-05-21T15:07:49.183Z,5.72
2023-05-21T15:12:53.025Z,9.70
2023-05-21T15:17:57.850Z,4.15
2023-05-21T15:28:09.436Z,4.88
2023-05-21T15:33:13.135Z,4.60
2023-05-21T15:38:18.149Z,4.43
2023-05-21T15:43:21.853Z,4.05
2023-05-21T15:48:25.509Z,6.70
2023-05-21T15:53:30.467Z,7.10
2023-05-21T15:58:34.075Z,5.78
2023-05-21T16:03:37.778Z,4.73
2023-05-21T16:08:43.104Z,4.53
2023-05-21T16:13:46.645Z,5.72
2023-05-21T16:18:50.262Z,3.47
2023-05-21T16:23:55.396Z,3.67
2023-05-21T16:28:58.941Z,4.35
2023-05-21T16:34:02.449Z,5.83
2023-05-21T16:39:07.466Z,4.47
2023-05-21T16:44:11.043Z,5.32
2023-05-21T16:49:14.745Z,4.57
2023-05-21T16:54:19.687Z,4.67
2023-05-21T16:59:23.232Z,4.20
2023-05-21T17:04:26.709Z,6.27
2023-05-21T17:09:31.677Z,11.23
2023-05-21T17:14:37.730Z,6.05
2023-05-21T17:19:44.498Z,7.15
2023-05-21T17:24:49.917Z,6.68
2023-05-21T17:29:53.491Z,5.95
2023-05-21T17:34:56.989Z,5.73
2023-05-21T17:40:02.072Z,7.80
2023-05-21T17:45:08.065Z,6.13
2023-05-21T17:50:11.967Z,6.80
2023-05-21T17:55:17.180Z,6.03
2023-05-21T18:00:21.529Z,6.90
2023-05-21T18:05:25.199Z,6.15
2023-05-21T18:10:30.167Z,8.70
2023-05-21T18:15:34.561Z,7.75
2023-05-21T18:20:38.352Z,5.53
2023-05-21T18:25:43.557Z,6.63
2023-05-21T18:30:47.261Z,6.88
2023-05-21T18:35:50.756Z,6.70
2023-05-21T18:40:55.876Z,10.38
2023-05-21T18:46:00.890Z,10.68
2023-05-21T18:51:04.664Z,15.23
2023-05-21T18:56:10.425Z,18.10
2023-05-21T19:01:14.041Z,12.93
2023-05-21T19:06:17.633Z,9.07
2023-05-21T19:11:23.765Z,15.32
2023-05-21T19:16:27.614Z,11.73
2023-05-21T19:21:31.577Z,8.50
2023-05-21T19:26:36.644Z,9.65
2023-05-21T19:31:40.517Z,12.75
2023-05-21T19:36:52.880Z,9.60
2023-05-21T19:41:58.647Z,10.63
2023-05-21T19:47:03.032Z,12.10
2023-05-21T19:52:07.324Z,10.38
2023-05-21T19:57:13.435Z,13.27
2023-05-21T20:02:19.276Z,13.95
2023-05-21T20:07:22.839Z,12.07
2023-05-21T20:12:27.830Z,9.88
2023-05-21T20:17:34.366Z,9.40
2023-05-21T20:22:38.128Z,11.20
2023-05-21T20:27:43.160Z,9.57
2023-05-21T20:32:46.820Z,8.30
2023-05-21T20:37:50.462Z,8.38
2023-05-21T20:42:55.361Z,13.45
2023-05-21T20:48:01.466Z,9.73
2023-05-21T20:53:05.243Z,8.77
2023-05-21T20:58:10.349Z,7.97
2023-05-21T21:03:13.920Z,11.00
2023-05-21T21:08:17.524Z,9.90
2023-05-21T21:13:22.470Z,10.90
2023-05-21T21:18:25.982Z,10.88
2023-05-21T21:23:30.295Z,8.68
2023-05-21T21:28:35.279Z,14.38
2023-05-21T21:33:38.894Z,10.45
2023-05-21T21:38:42.548Z,8.57
2023-05-21T21:43:47.809Z,12.45
2023-05-21T21:48:51.401Z,12.20
2023-05-21T21:53:55.042Z,9.13
2023-05-21T21:58:59.972Z,8.55
2023-05-21T22:04:03.542Z,12.18
2023-05-21T22:09:07.723Z,11.10
2023-05-21T22:14:12.928Z,11.70
2023-05-21T22:19:20.651Z,17.27
2023-05-21T22:24:32.044Z,10.80
2023-05-21T22:29:38.402Z,9.45
2023-05-21T22:34:42.030Z,7.57
2023-05-21T22:39:45.521Z,9.82
2023-05-21T22:44:50.809Z,11.52
2023-05-21T22:49:54.474Z,8.98
2023-05-21T22:55:00.764Z,9.80
2023-05-21T23:00:07.666Z,10.43
2023-05-21T23:05:11.454Z,11.45
2023-05-21T23:10:14.984Z,9.45
2023-05-21T23:15:20.063Z,13.52
2023-05-21T23:20:24.790Z,12.23
2023-05-21T23:25:28.261Z,10.00
2023-05-21T23:30:33.319Z,10.02
2023-05-21T23:35:37.114Z,12.32
2023-05-21T23:40:40.788Z,11.88
2023-05-21T23:45:46.089Z,11.43
2023-05-21T23:50:49.795Z,14.40
2023-05-21T23:55:53.528Z,9.75
